createdAt,value
2023-02-20T00:00:22.442Z,1027.63
2023-02-20T00:00:52.537Z,1027.43
2023-02-20T00:01:25.199Z,1027.43
2023-02-20T00:01:56.506Z,1027.43
2023-02-20T00:02:32.445Z,1027.63
2023-02-20T00:03:00.507Z,1027.63
2023-02-20T00:03:33.599Z,1027.43
2023-02-20T00:04:04.600Z,1027.43
2023-02-20T00:04:37.120Z,1027.43
2023-02-20T00:05:08.826Z,1027.43
2023-02-20T00:05:41.212Z,1027.53
2023-02-20T00:06:12.759Z,1027.53
2023-02-20T00:06:47.340Z,1027.43
2023-02-20T00:07:16.540Z,1027.43
2023-02-20T00:07:49.294Z,1027.43
2023-02-20T00:08:20.470Z,1027.43
2023-02-20T00:08:53.145Z,1027.43
2023-02-20T00:09:24.631Z,1027.53
2023-02-20T00:09:58.914Z,1027.53
2023-02-20T00:10:28.877Z,1027.43
2023-02-20T00:11:01.364Z,1027.43
2023-02-20T00:11:32.521Z,1027.53
2023-02-20T00:12:05.090Z,1027.53
2023-02-20T00:12:36.532Z,1027.43
2023-02-20T00:13:09.241Z,1027.43
2023-02-20T00:13:40.397Z,1027.53
2023-02-20T00:14:13.223Z,1027.53
2023-02-20T00:14:44.463Z,1027.53
2023-02-20T00:15:18.528Z,1027.53
2023-02-20T00:15:48.633Z,1027.43
2023-02-20T00:16:21.260Z,1027.43
2023-02-20T00:16:52.476Z,1027.43
2023-02-20T00:17:25.130Z,1027.43
2023-02-20T00:17:56.424Z,1027.43
2023-02-20T00:18:29.288Z,1027.53
2023-02-20T00:19:00.630Z,1027.53
2023-02-20T00:19:33.157Z,1027.33
2023-02-20T00:20:04.712Z,1027.33
2023-02-20T00:20:37.454Z,1027.53
2023-02-20T00:21:08.385Z,1027.53
2023-02-20T00:21:41.185Z,1027.63
2023-02-20T00:22:12.495Z,1027.63
2023-02-20T00:22:45.418Z,1027.43
2023-02-20T00:23:16.452Z,1027.43
2023-02-20T00:23:50.174Z,1027.43
2023-02-20T00:24:20.693Z,1027.43
2023-02-20T00:24:56.151Z,1027.53
2023-02-20T00:25:24.755Z,1027.63
2023-02-20T00:25:57.401Z,1027.63
2023-02-20T00:26:28.468Z,1027.73
2023-02-20T00:27:01.219Z,1027.73
2023-02-20T00:27:32.585Z,1027.43
2023-02-20T00:28:05.511Z,1027.43
2023-02-20T00:28:36.586Z,1027.53
2023-02-20T00:29:09.135Z,1027.53
2023-02-20T00:29:40.495Z,1027.43
2023-02-20T00:30:14.327Z,1027.43
2023-02-20T00:30:44.631Z,1027.33
2023-02-20T00:31:17.531Z,1027.33
2023-02-20T00:31:48.563Z,1027.53
2023-02-20T00:32:21.399Z,1027.53
2023-02-20T00:32:52.469Z,1027.53
2023-02-20T00:33:25.305Z,1027.33
2023-02-20T00:33:56.374Z,1027.33
2023-02-20T00:34:29.256Z,1027.43
2023-02-20T00:35:00.850Z,1027.43
2023-02-20T00:35:33.249Z,1027.53
2023-02-20T00:36:04.477Z,1027.53
2023-02-20T00:36:37.406Z,1027.33
2023-02-20T00:37:08.522Z,1027.33
2023-02-20T00:37:56.472Z,1027.63
2023-02-20T00:38:28.593Z,1027.53
2023-02-20T00:39:00.477Z,1027.53
2023-02-20T00:39:33.151Z,1027.63
2023-02-20T00:40:04.959Z,1027.63
2023-02-20T00:40:37.248Z,1027.63
2023-02-20T00:41:08.518Z,1027.63
2023-02-20T00:41:43.128Z,1027.53
2023-02-20T00:42:12.407Z,1027.53
2023-02-20T00:42:46.094Z,1027.53
2023-02-20T00:43:16.432Z,1027.53
2023-02-20T00:43:49.287Z,1027.53
2023-02-20T00:44:20.388Z,1027.53
2023-02-20T00:44:53.491Z,1027.63
2023-02-20T00:45:25.774Z,1027.33
2023-02-20T00:45:57.353Z,1027.33
2023-02-20T00:46:28.507Z,1027.33
2023-02-20T00:47:01.520Z,1027.33
2023-02-20T00:47:32.565Z,1027.53
2023-02-20T00:48:05.528Z,1027.53
2023-02-20T00:48:36.465Z,1027.43
2023-02-20T00:49:12.234Z,1027.43
2023-02-20T00:49:40.646Z,1027.33
2023-02-20T00:50:13.644Z,1027.33
2023-02-20T00:50:44.532Z,1027.43
2023-02-20T00:51:17.403Z,1027.43
2023-02-20T00:51:48.430Z,1027.43
2023-02-20T00:52:24.217Z,1027.43
2023-02-20T00:52:52.486Z,1027.33
2023-02-20T00:53:25.213Z,1027.33
2023-02-20T00:53:56.428Z,1027.33
2023-02-20T00:54:29.331Z,1027.33
2023-02-20T00:55:00.885Z,1027.33
2023-02-20T00:55:33.246Z,1027.43
2023-02-20T00:56:04.611Z,1027.43
2023-02-20T00:56:37.447Z,1027.53
2023-02-20T00:57:08.404Z,1027.53
2023-02-20T00:57:41.452Z,1027.43
2023-02-20T00:58:12.543Z,1027.43
2023-02-20T00:58:45.472Z,1027.43
2023-02-20T00:59:16.431Z,1027.43
2023-02-20T00:59:49.364Z,1027.53
2023-02-20T01:00:21.569Z,1027.53
2023-02-20T01:00:53.348Z,1027.43
2023-02-20T01:01:24.486Z,1027.43
2023-02-20T01:01:57.478Z,1027.43
2023-02-20T01:02:28.680Z,1027.33
2023-02-20T01:03:01.404Z,1027.33
2023-02-20T01:03:32.543Z,1027.43
2023-02-20T01:04:10.477Z,1027.43
2023-02-20T01:04:36.448Z,1027.63
2023-02-20T01:05:08.834Z,1027.63
2023-02-20T01:05:41.288Z,1027.43
2023-02-20T01:06:12.914Z,1027.43
2023-02-20T01:06:45.256Z,1027.33
2023-02-20T01:07:16.543Z,1027.33
2023-02-20T01:07:52.524Z,1027.43
2023-02-20T01:08:20.405Z,1027.43
2023-02-20T01:08:53.271Z,1027.63
2023-02-20T01:09:24.603Z,1027.43
2023-02-20T01:09:57.374Z,1027.43
2023-02-20T01:10:28.726Z,1027.63
2023-02-20T01:11:01.315Z,1027.63
2023-02-20T01:11:32.630Z,1027.43
2023-02-20T01:12:05.332Z,1027.43
2023-02-20T01:12:36.512Z,1027.53
2023-02-20T01:13:14.799Z,1027.53
2023-02-20T01:13:40.566Z,1027.43
2023-02-20T01:14:12.582Z,1027.43
2023-02-20T01:14:45.338Z,1027.43
2023-02-20T01:15:17.566Z,1027.43
2023-02-20T01:15:49.635Z,1027.53
2023-02-20T01:16:20.653Z,1027.53
2023-02-20T01:16:54.169Z,1027.23
2023-02-20T01:17:24.638Z,1027.33
2023-02-20T01:17:58.475Z,1027.33
2023-02-20T01:18:28.533Z,1027.43
2023-02-20T01:19:01.338Z,1027.43
2023-02-20T01:19:32.396Z,1027.33
2023-02-20T01:20:05.635Z,1027.33
2023-02-20T01:20:36.555Z,1027.33
2023-02-20T01:21:09.179Z,1027.33
2023-02-20T01:21:40.526Z,1027.43
2023-02-20T01:21:56.631Z,1027.43
2023-02-20T01:22:28.469Z,1027.33
2023-02-20T01:23:00.509Z,1027.33
2023-02-20T01:23:32.561Z,1027.43
2023-02-20T01:24:04.470Z,1027.43
2023-02-20T01:24:37.380Z,1027.63
2023-02-20T01:25:08.838Z,1027.63
2023-02-20T01:25:41.422Z,1027.63
2023-02-20T01:26:12.845Z,1027.63
2023-02-20T01:26:45.319Z,1027.73
2023-02-20T01:27:16.514Z,1027.73
2023-02-20T01:27:49.471Z,1027.63
2023-02-20T01:28:20.659Z,1027.63
2023-02-20T01:28:53.373Z,1027.43
2023-02-20T01:29:24.468Z,1027.43
2023-02-20T01:29:57.328Z,1027.43
2023-02-20T01:30:29.775Z,1027.53
2023-02-20T01:31:01.541Z,1027.53
2023-02-20T01:31:32.545Z,1027.53
2023-02-20T01:32:05.344Z,1027.53
2023-02-20T01:32:36.555Z,1027.53
2023-02-20T01:33:12.019Z,1027.53
2023-02-20T01:33:40.480Z,1027.33
2023-02-20T01:34:13.421Z,1027.33
2023-02-20T01:34:44.381Z,1027.33
2023-02-20T01:35:17.435Z,1027.33
2023-02-20T01:35:48.635Z,1027.43
2023-02-20T01:36:21.536Z,1027.43
2023-02-20T01:36:52.425Z,1027.43
2023-02-20T01:37:28.458Z,1027.53
2023-02-20T01:37:56.610Z,1027.53
2023-02-20T01:38:29.228Z,1027.43
2023-02-20T01:39:00.566Z,1027.43
2023-02-20T01:39:35.200Z,1027.33
2023-02-20T01:40:04.953Z,1027.33
2023-02-20T01:40:37.228Z,1027.43
2023-02-20T01:41:08.486Z,1027.43
2023-02-20T01:41:41.538Z,1027.53
2023-02-20T01:42:12.463Z,1027.53
2023-02-20T01:42:45.322Z,1027.53
2023-02-20T01:43:16.604Z,1027.53
2023-02-20T01:43:49.542Z,1027.43
2023-02-20T01:44:20.518Z,1027.43
2023-02-20T01:44:55.214Z,1027.33
2023-02-20T01:45:25.802Z,1027.53
2023-02-20T01:46:04.145Z,1027.53
2023-02-20T01:46:28.519Z,1027.43
2023-02-20T01:47:00.650Z,1027.43
2023-02-20T01:47:33.133Z,1027.53
2023-02-20T01:48:04.493Z,1027.53
2023-02-20T01:48:37.341Z,1027.43
2023-02-20T01:49:08.610Z,1027.43
2023-02-20T01:49:41.105Z,1027.53
2023-02-20T01:50:12.788Z,1027.53
2023-02-20T01:50:45.440Z,1027.33
2023-02-20T01:51:16.419Z,1027.33
2023-02-20T01:51:49.515Z,1027.33
2023-02-20T01:52:20.535Z,1027.33
2023-02-20T01:52:53.541Z,1027.33
2023-02-20T01:53:24.377Z,1027.23
2023-02-20T01:53:57.586Z,1027.23
2023-02-20T01:54:28.622Z,1027.53
2023-02-20T01:55:01.754Z,1027.53
2023-02-20T01:55:32.559Z,1027.53
2023-02-20T01:56:06.412Z,1027.53
2023-02-20T01:56:36.611Z,1027.23
2023-02-20T01:57:09.463Z,1027.23
2023-02-20T01:57:40.508Z,1027.33
2023-02-20T01:58:13.359Z,1027.33
2023-02-20T01:58:44.588Z,1027.43
2023-02-20T01:59:20.269Z,1027.43
2023-02-20T01:59:48.505Z,1027.53
2023-02-20T02:00:23.142Z,1027.53
2023-02-20T02:00:52.746Z,1027.12
2023-02-20T02:01:25.696Z,1027.02
2023-02-20T02:01:56.665Z,1027.02
2023-02-20T02:02:29.384Z,1027.23
2023-02-20T02:03:00.470Z,1027.23
2023-02-20T02:03:33.392Z,1027.12
2023-02-20T02:04:04.738Z,1027.12
2023-02-20T02:04:42.154Z,1027.02
2023-02-20T02:05:08.789Z,1027.02
2023-02-20T02:05:40.590Z,1027.12
2023-02-20T02:06:13.067Z,1027.12
2023-02-20T02:06:44.594Z,1027.12
2023-02-20T02:07:16.575Z,1027.12
2023-02-20T02:07:48.652Z,1026.82
2023-02-20T02:08:20.555Z,1026.82
2023-02-20T02:08:53.693Z,1027.23
2023-02-20T02:09:24.703Z,1027.33
2023-02-20T02:09:57.133Z,1027.33
2023-02-20T02:10:28.773Z,1027.12
2023-02-20T02:11:01.603Z,1027.12
2023-02-20T02:11:32.688Z,1027.02
2023-02-20T02:12:05.388Z,1027.02
2023-02-20T02:12:36.489Z,1027.23
2023-02-20T02:13:09.302Z,1027.23
2023-02-20T02:13:40.421Z,1027.12
2023-02-20T02:14:13.302Z,1027.12
2023-02-20T02:14:44.594Z,1027.23
2023-02-20T02:15:20.347Z,1027.23
2023-02-20T02:15:48.561Z,1027.12
2023-02-20T02:16:21.497Z,1027.12
2023-02-20T02:16:52.554Z,1027.33
2023-02-20T02:17:40.571Z,1027.12
2023-02-20T02:18:12.416Z,1027.12
2023-02-20T02:18:44.449Z,1027.23
2023-02-20T02:19:17.352Z,1027.23
2023-02-20T02:19:48.566Z,1027.12
2023-02-20T02:20:21.656Z,1027.12
2023-02-20T02:20:52.476Z,1027.33
2023-02-20T02:21:25.480Z,1027.12
2023-02-20T02:21:56.518Z,1027.12
2023-02-20T02:22:29.319Z,1027.53
2023-02-20T02:23:00.630Z,1027.53
2023-02-20T02:23:40.235Z,1027.02
2023-02-20T02:24:04.482Z,1027.02
2023-02-20T02:24:36.594Z,1027.02
2023-02-20T02:25:13.433Z,1027.02
2023-02-20T02:25:40.455Z,1027.12
2023-02-20T02:26:12.766Z,1027.12
2023-02-20T02:26:44.495Z,1027.12
2023-02-20T02:27:16.650Z,1027.12
2023-02-20T02:27:48.485Z,1027.33
2023-02-20T02:28:20.569Z,1027.33
2023-02-20T02:28:52.574Z,1027.23
2023-02-20T02:29:24.567Z,1027.23
2023-02-20T02:29:57.307Z,1027.23
2023-02-20T02:30:29.868Z,1027.02
2023-02-20T02:31:06.467Z,1027.02
2023-02-20T02:31:32.686Z,1027.23
2023-02-20T02:32:04.547Z,1027.23
2023-02-20T02:32:36.632Z,1027.12
2023-02-20T02:33:08.417Z,1027.12
2023-02-20T02:33:41.263Z,1027.23
2023-02-20T02:34:12.615Z,1027.23
2023-02-20T02:34:54.040Z,1027.02
2023-02-20T02:35:16.781Z,1027.02
2023-02-20T02:35:48.568Z,1027.12
2023-02-20T02:36:22.419Z,1027.12
2023-02-20T02:36:52.412Z,1027.12
2023-02-20T02:37:26.979Z,1027.12
2023-02-20T02:37:56.616Z,1027.12
2023-02-20T02:38:29.360Z,1027.02
2023-02-20T02:39:00.520Z,1027.02
2023-02-20T02:39:33.223Z,1027.23
2023-02-20T02:40:04.952Z,1027.23
2023-02-20T02:40:37.265Z,1027.33
2023-02-20T02:41:08.560Z,1027.33
2023-02-20T02:41:41.571Z,1027.12
2023-02-20T02:42:12.650Z,1027.12
2023-02-20T02:42:45.266Z,1027.12
2023-02-20T02:43:16.482Z,1027.12
2023-02-20T02:44:04.682Z,1027.12
2023-02-20T02:44:36.523Z,1027.02
2023-02-20T02:45:09.550Z,1027.02
2023-02-20T02:45:44.692Z,1027.23
2023-02-20T02:46:12.858Z,1027.23
2023-02-20T02:46:47.416Z,1027.12
2023-02-20T02:47:16.467Z,1027.12
2023-02-20T02:47:49.498Z,1027.12
2023-02-20T02:48:20.644Z,1027.12
2023-02-20T02:48:56.173Z,1026.92
2023-02-20T02:49:24.603Z,1026.92
2023-02-20T02:50:01.571Z,1026.92
2023-02-20T02:50:28.525Z,1026.82
2023-02-20T02:51:00.533Z,1026.82
2023-02-20T02:51:32.703Z,1026.72
2023-02-20T02:52:04.736Z,1026.72
2023-02-20T02:52:36.572Z,1027.02
2023-02-20T02:53:08.570Z,1027.02
2023-02-20T02:53:40.656Z,1026.92
2023-02-20T02:54:12.565Z,1026.92
2023-02-20T02:54:45.289Z,1027.02
2023-02-20T02:55:16.927Z,1027.02
2023-02-20T02:55:49.488Z,1026.82
2023-02-20T02:56:20.556Z,1026.82
2023-02-20T02:56:53.386Z,1026.92
2023-02-20T02:57:24.669Z,1026.82
2023-02-20T02:57:57.348Z,1026.82
2023-02-20T02:58:28.515Z,1027.02
2023-02-20T02:59:04.393Z,1027.02
2023-02-20T02:59:32.652Z,1026.92
2023-02-20T03:00:08.397Z,1026.92
2023-02-20T03:00:36.813Z,1026.92
2023-02-20T03:01:09.472Z,1026.92
2023-02-20T03:01:40.444Z,1027.02
2023-02-20T03:02:13.490Z,1027.02
2023-02-20T03:02:44.584Z,1026.82
2023-02-20T03:03:17.540Z,1026.82
2023-02-20T03:03:48.455Z,1027.12
2023-02-20T03:04:21.483Z,1027.12
2023-02-20T03:04:52.587Z,1026.92
2023-02-20T03:05:25.654Z,1026.92
2023-02-20T03:05:56.559Z,1026.92
2023-02-20T03:06:29.515Z,1026.92
2023-02-20T03:07:00.551Z,1026.92
2023-02-20T03:07:36.341Z,1026.92
2023-02-20T03:08:04.658Z,1026.92
2023-02-20T03:08:37.492Z,1026.82
2023-02-20T03:09:08.494Z,1026.82
2023-02-20T03:09:44.298Z,1026.82
2023-02-20T03:10:12.922Z,1026.82
2023-02-20T03:10:45.244Z,1026.92
2023-02-20T03:11:16.506Z,1026.92
2023-02-20T03:11:49.400Z,1027.02
2023-02-20T03:12:20.743Z,1027.02
2023-02-20T03:12:53.391Z,1026.72
2023-02-20T03:13:24.552Z,1026.92
2023-02-20T03:13:57.503Z,1026.92
2023-02-20T03:14:28.801Z,1026.92
2023-02-20T03:15:02.838Z,1026.92
2023-02-20T03:15:32.776Z,1027.02
2023-02-20T03:16:08.035Z,1027.02
2023-02-20T03:16:36.569Z,1027.02
2023-02-20T03:17:09.396Z,1027.02
2023-02-20T03:17:40.654Z,1027.02
2023-02-20T03:18:13.382Z,1027.02
2023-02-20T03:18:44.636Z,1026.92
2023-02-20T03:19:17.402Z,1026.92
2023-02-20T03:19:48.648Z,1027.02
2023-02-20T03:20:25.551Z,1027.02
2023-02-20T03:20:52.525Z,1027.12
2023-02-20T03:21:24.614Z,1027.12
2023-02-20T03:21:56.479Z,1027.12
2023-02-20T03:22:28.585Z,1026.92
2023-02-20T03:23:00.669Z,1026.92
2023-02-20T03:23:32.535Z,1026.92
2023-02-20T03:24:05.297Z,1026.92
2023-02-20T03:24:36.667Z,1026.92
2023-02-20T03:25:09.792Z,1026.92
2023-02-20T03:25:40.517Z,1027.02
2023-02-20T03:26:28.655Z,1027.23
2023-02-20T03:27:00.539Z,1027.23
2023-02-20T03:27:32.723Z,1027.02
2023-02-20T03:28:04.719Z,1027.02
2023-02-20T03:28:36.483Z,1026.92
2023-02-20T03:29:09.354Z,1026.92
2023-02-20T03:29:40.656Z,1027.02
2023-02-20T03:30:14.336Z,1027.02
2023-02-20T03:30:44.679Z,1027.12
2023-02-20T03:31:23.135Z,1027.12
2023-02-20T03:31:48.749Z,1027.12
2023-02-20T03:32:20.649Z,1027.12
2023-02-20T03:32:58.901Z,1027.23
2023-02-20T03:33:24.637Z,1027.12
2023-02-20T03:33:56.442Z,1027.12
2023-02-20T03:34:29.113Z,1027.23
2023-02-20T03:35:00.979Z,1027.23
2023-02-20T03:35:33.466Z,1027.12
2023-02-20T03:36:04.677Z,1027.12
2023-02-20T03:36:38.294Z,1027.02
2023-02-20T03:37:08.606Z,1027.02
2023-02-20T03:37:42.272Z,1027.12
2023-02-20T03:38:12.490Z,1027.12
2023-02-20T03:38:45.439Z,1027.23
2023-02-20T03:39:16.548Z,1027.23
2023-02-20T03:39:49.506Z,1027.12
2023-02-20T03:40:20.969Z,1027.12
2023-02-20T03:40:53.503Z,1027.02
2023-02-20T03:41:24.486Z,1026.82
2023-02-20T03:41:57.335Z,1026.82
2023-02-20T03:42:28.518Z,1026.92
2023-02-20T03:43:01.289Z,1026.92
2023-02-20T03:43:32.561Z,1027.12
2023-02-20T03:44:14.325Z,1027.12
2023-02-20T03:44:36.930Z,1027.02
2023-02-20T03:45:09.537Z,1027.02
2023-02-20T03:45:41.366Z,1026.92
2023-02-20T03:46:12.884Z,1026.92
2023-02-20T03:46:45.296Z,1026.92
2023-02-20T03:47:16.461Z,1026.92
2023-02-20T03:47:49.484Z,1027.02
2023-02-20T03:48:20.611Z,1027.02
2023-02-20T03:48:53.201Z,1026.92
2023-02-20T03:49:24.512Z,1027.23
2023-02-20T03:49:57.437Z,1027.23
2023-02-20T03:50:28.840Z,1027.23
2023-02-20T03:51:02.177Z,1027.23
2023-02-20T03:51:32.556Z,1026.92
2023-02-20T03:52:08.305Z,1026.92
2023-02-20T03:52:36.604Z,1027.12
2023-02-20T03:53:09.290Z,1027.12
2023-02-20T03:53:40.724Z,1027.02
2023-02-20T03:54:13.302Z,1027.02
2023-02-20T03:54:44.514Z,1027.12
2023-02-20T03:55:17.704Z,1027.12
2023-02-20T03:55:48.611Z,1027.02
2023-02-20T03:56:21.283Z,1027.02
2023-02-20T03:56:52.534Z,1027.02
2023-02-20T03:57:25.528Z,1026.92
2023-02-20T03:57:56.426Z,1026.92
2023-02-20T03:58:29.344Z,1027.02
2023-02-20T03:59:00.604Z,1027.02
2023-02-20T03:59:36.309Z,1026.82
2023-02-20T04:00:05.809Z,1026.82
2023-02-20T04:00:37.361Z,1026.82
2023-02-20T04:01:08.661Z,1026.82
2023-02-20T04:01:41.307Z,1027.02
2023-02-20T04:02:12.561Z,1027.02
2023-02-20T04:02:45.420Z,1027.02
2023-02-20T04:03:16.632Z,1027.02
2023-02-20T04:03:50.236Z,1027.12
2023-02-20T04:04:20.586Z,1027.12
2023-02-20T04:04:53.404Z,1027.02
2023-02-20T04:05:24.756Z,1027.02
2023-02-20T04:05:57.471Z,1027.02
2023-02-20T04:06:28.549Z,1026.82
2023-02-20T04:07:02.413Z,1026.82
2023-02-20T04:07:32.573Z,1026.92
2023-02-20T04:08:06.290Z,1026.92
2023-02-20T04:08:36.575Z,1026.92
2023-02-20T04:09:09.189Z,1026.92
2023-02-20T04:09:40.565Z,1026.92
2023-02-20T04:10:14.640Z,1026.92
2023-02-20T04:10:44.428Z,1027.12
2023-02-20T04:11:20.071Z,1027.12
2023-02-20T04:11:48.621Z,1027.12
2023-02-20T04:12:21.358Z,1027.12
2023-02-20T04:12:52.456Z,1027.02
2023-02-20T04:13:25.330Z,1027.12
2023-02-20T04:13:56.690Z,1027.12
2023-02-20T04:14:29.496Z,1027.02
2023-02-20T04:15:01.930Z,1027.02
2023-02-20T04:15:33.447Z,1026.92
2023-02-20T04:16:04.728Z,1026.92
2023-02-20T04:16:37.182Z,1027.23
2023-02-20T04:17:08.484Z,1027.23
2023-02-20T04:17:47.116Z,1027.12
2023-02-20T04:18:15.696Z,1027.12
2023-02-20T04:18:44.523Z,1027.12
2023-02-20T04:19:17.379Z,1027.12
2023-02-20T04:19:48.734Z,1027.02
2023-02-20T04:20:21.737Z,1027.02
2023-02-20T04:20:52.579Z,1027.12
2023-02-20T04:21:40.746Z,1027.23
2023-02-20T04:22:12.497Z,1027.23
2023-02-20T04:22:44.671Z,1027.02
2023-02-20T04:23:16.512Z,1027.02
2023-02-20T04:23:48.532Z,1027.23
2023-02-20T04:24:20.628Z,1027.23
2023-02-20T04:24:52.540Z,1026.92
2023-02-20T04:25:25.768Z,1027.12
2023-02-20T04:25:56.636Z,1027.12
2023-02-20T04:26:32.290Z,1026.92
2023-02-20T04:27:00.658Z,1026.92
2023-02-20T04:27:36.217Z,1026.92
2023-02-20T04:28:04.689Z,1026.92
2023-02-20T04:28:37.422Z,1027.12
2023-02-20T04:29:08.590Z,1027.12
2023-02-20T04:29:44.562Z,1027.02
2023-02-20T04:30:13.450Z,1027.02
2023-02-20T04:30:45.739Z,1027.12
2023-02-20T04:31:16.617Z,1027.12
2023-02-20T04:31:49.627Z,1027.12
2023-02-20T04:32:20.607Z,1027.12
2023-02-20T04:32:58.939Z,1026.92
2023-02-20T04:33:24.649Z,1027.02
2023-02-20T04:33:56.528Z,1027.02
2023-02-20T04:34:31.297Z,1026.92
2023-02-20T04:35:01.021Z,1026.92
2023-02-20T04:35:33.361Z,1026.82
2023-02-20T04:36:04.685Z,1026.82
2023-02-20T04:36:37.381Z,1026.92
2023-02-20T04:37:08.607Z,1026.92
2023-02-20T04:37:41.569Z,1026.92
2023-02-20T04:38:12.703Z,1026.92
2023-02-20T04:38:45.467Z,1026.92
2023-02-20T04:39:16.636Z,1026.92
2023-02-20T04:39:52.372Z,1026.82
2023-02-20T04:40:21.047Z,1026.82
2023-02-20T04:40:54.345Z,1027.02
2023-02-20T04:41:24.441Z,1027.23
2023-02-20T04:41:57.299Z,1027.23
2023-02-20T04:42:28.665Z,1026.92
2023-02-20T04:43:01.509Z,1026.92
2023-02-20T04:43:32.604Z,1026.92
2023-02-20T04:44:05.498Z,1026.92
2023-02-20T04:44:36.684Z,1026.92
2023-02-20T04:45:11.216Z,1026.92
2023-02-20T04:45:40.747Z,1027.02
2023-02-20T04:46:13.803Z,1027.02
2023-02-20T04:46:44.510Z,1026.92
2023-02-20T04:47:20.332Z,1026.92
2023-02-20T04:47:48.562Z,1027.02
2023-02-20T04:48:24.235Z,1027.02
2023-02-20T04:48:52.501Z,1026.62
2023-02-20T04:49:25.500Z,1026.92
2023-02-20T04:49:56.585Z,1026.92
2023-02-20T04:50:29.825Z,1027.02
2023-02-20T04:51:02.836Z,1027.02
2023-02-20T04:51:33.387Z,1026.92
2023-02-20T04:52:04.661Z,1026.92
2023-02-20T04:52:37.628Z,1027.02
2023-02-20T04:53:08.532Z,1027.02
2023-02-20T04:53:41.483Z,1026.92
2023-02-20T04:54:12.542Z,1026.92
2023-02-20T04:54:45.296Z,1027.12
2023-02-20T04:55:16.884Z,1027.12
2023-02-20T04:55:49.579Z,1027.12
2023-02-20T04:56:20.347Z,1027.12
2023-02-20T04:56:53.327Z,1027.12
2023-02-20T04:57:24.709Z,1026.92
2023-02-20T04:57:57.511Z,1026.92
2023-02-20T04:58:28.531Z,1027.12
2023-02-20T04:59:01.379Z,1027.12
2023-02-20T04:59:32.673Z,1027.12
2023-02-20T05:00:06.808Z,1027.12
2023-02-20T05:00:36.728Z,1027.02
2023-02-20T05:01:09.359Z,1027.02
2023-02-20T05:01:40.688Z,1027.23
2023-02-20T05:02:17.281Z,1027.23
2023-02-20T05:02:44.536Z,1027.33
2023-02-20T05:03:16.487Z,1027.33
2023-02-20T05:03:49.345Z,1027.02
2023-02-20T05:04:20.681Z,1027.02
2023-02-20T05:04:56.353Z,1027.02
2023-02-20T05:05:24.868Z,1026.92
2023-02-20T05:06:02.710Z,1026.92
2023-02-20T05:06:28.615Z,1027.33
2023-02-20T05:07:00.629Z,1027.33
2023-02-20T05:07:36.566Z,1027.12
2023-02-20T05:08:04.537Z,1027.12
2023-02-20T05:08:37.381Z,1027.12
2023-02-20T05:09:08.428Z,1027.12
2023-02-20T05:09:24.812Z,1027.43
2023-02-20T05:09:56.469Z,1027.43
2023-02-20T05:10:28.874Z,1027.02
2023-02-20T05:11:00.698Z,1027.02
2023-02-20T05:11:32.510Z,1027.23
2023-02-20T05:12:05.515Z,1027.23
2023-02-20T05:12:36.648Z,1027.12
2023-02-20T05:13:09.520Z,1027.12
2023-02-20T05:13:40.586Z,1027.12
2023-02-20T05:14:16.764Z,1027.12
2023-02-20T05:14:44.661Z,1027.33
2023-02-20T05:15:21.652Z,1027.33
2023-02-20T05:15:48.704Z,1027.23
2023-02-20T05:16:23.330Z,1027.23
2023-02-20T05:16:52.597Z,1027.23
2023-02-20T05:17:25.685Z,1027.12
2023-02-20T05:17:56.681Z,1027.12
2023-02-20T05:18:29.542Z,1027.43
2023-02-20T05:19:00.527Z,1027.43
2023-02-20T05:19:33.529Z,1027.23
2023-02-20T05:20:04.857Z,1027.23
2023-02-20T05:20:37.684Z,1027.33
2023-02-20T05:21:08.559Z,1027.33
2023-02-20T05:21:42.481Z,1027.33
2023-02-20T05:22:12.659Z,1027.33
2023-02-20T05:22:45.419Z,1027.23
2023-02-20T05:23:16.607Z,1027.23
2023-02-20T05:23:49.511Z,1027.33
2023-02-20T05:24:20.784Z,1027.33
2023-02-20T05:24:53.598Z,1027.33
2023-02-20T05:25:24.987Z,1027.02
2023-02-20T05:25:57.682Z,1027.02
2023-02-20T05:26:28.552Z,1027.43
2023-02-20T05:27:01.714Z,1027.43
2023-02-20T05:27:32.641Z,1027.33
2023-02-20T05:28:05.546Z,1027.33
2023-02-20T05:28:36.517Z,1027.33
2023-02-20T05:29:10.408Z,1027.33
2023-02-20T05:29:40.585Z,1027.23
2023-02-20T05:30:15.104Z,1027.23
2023-02-20T05:30:44.841Z,1027.53
2023-02-20T05:31:18.103Z,1027.53
2023-02-20T05:31:48.751Z,1027.33
2023-02-20T05:32:21.512Z,1027.33
2023-02-20T05:32:52.603Z,1027.23
2023-02-20T05:33:28.467Z,1027.43
2023-02-20T05:33:56.509Z,1027.43
2023-02-20T05:34:29.226Z,1027.53
2023-02-20T05:35:00.944Z,1027.53
2023-02-20T05:35:33.458Z,1027.43
2023-02-20T05:36:04.584Z,1027.43
2023-02-20T05:36:37.461Z,1027.43
2023-02-20T05:37:08.543Z,1027.43
2023-02-20T05:37:42.233Z,1027.43
2023-02-20T05:38:12.558Z,1027.43
2023-02-20T05:38:45.465Z,1027.53
2023-02-20T05:39:16.683Z,1027.53
2023-02-20T05:39:52.354Z,1027.43
2023-02-20T05:40:21.013Z,1027.43
2023-02-20T05:40:53.586Z,1027.73
2023-02-20T05:41:24.533Z,1027.43
2023-02-20T05:42:02.425Z,1027.43
2023-02-20T05:42:28.674Z,1027.43
2023-02-20T05:43:00.477Z,1027.43
2023-02-20T05:43:33.423Z,1027.43
2023-02-20T05:44:04.624Z,1027.43
2023-02-20T05:44:44.356Z,1027.63
2023-02-20T05:45:09.501Z,1027.63
2023-02-20T05:45:40.774Z,1027.33
2023-02-20T05:46:14.088Z,1027.33
2023-02-20T05:46:44.662Z,1027.33
2023-02-20T05:47:22.599Z,1027.33
2023-02-20T05:47:48.760Z,1027.43
2023-02-20T05:48:20.769Z,1027.43
2023-02-20T05:48:52.584Z,1027.53
2023-02-20T05:49:24.567Z,1027.53
2023-02-20T05:49:56.837Z,1027.53
2023-02-20T05:50:28.856Z,1027.43
2023-02-20T05:51:00.611Z,1027.43
2023-02-20T05:51:34.213Z,1027.63
2023-02-20T05:52:04.779Z,1027.63
2023-02-20T05:52:36.490Z,1027.73
2023-02-20T05:53:08.520Z,1027.73
2023-02-20T05:53:40.686Z,1027.53
2023-02-20T05:54:12.355Z,1027.53
2023-02-20T05:54:45.296Z,1027.53
2023-02-20T05:55:16.885Z,1027.53
2023-02-20T05:55:49.268Z,1027.63
2023-02-20T05:56:20.498Z,1027.63
2023-02-20T05:56:56.540Z,1027.94
2023-02-20T05:57:24.784Z,1027.63
2023-02-20T05:57:58.432Z,1027.63
2023-02-20T05:58:28.547Z,1027.73
2023-02-20T05:59:02.560Z,1027.73
2023-02-20T05:59:32.476Z,1027.53
2023-02-20T06:00:06.732Z,1027.53
2023-02-20T06:00:36.674Z,1027.63
2023-02-20T06:01:09.182Z,1027.63
2023-02-20T06:01:40.591Z,1027.63
2023-02-20T06:01:56.785Z,1027.63
2023-02-20T06:02:28.561Z,1027.63
2023-02-20T06:03:00.652Z,1027.63
2023-02-20T06:03:32.713Z,1027.63
2023-02-20T06:04:04.835Z,1027.63
2023-02-20T06:04:39.305Z,1027.63
2023-02-20T06:05:08.979Z,1027.63
2023-02-20T06:05:41.425Z,1027.43
2023-02-20T06:06:12.664Z,1027.43
2023-02-20T06:06:52.333Z,1027.53
2023-02-20T06:07:16.781Z,1027.53
2023-02-20T06:07:48.543Z,1027.63
2023-02-20T06:08:21.490Z,1027.63
2023-02-20T06:08:52.609Z,1027.63
2023-02-20T06:09:25.421Z,1027.33
2023-02-20T06:09:58.179Z,1027.33
2023-02-20T06:10:31.739Z,1027.33
2023-02-20T06:11:00.752Z,1027.33
2023-02-20T06:11:33.371Z,1027.43
2023-02-20T06:12:04.603Z,1027.43
2023-02-20T06:12:37.752Z,1027.53
2023-02-20T06:13:08.534Z,1027.53
2023-02-20T06:13:41.297Z,1027.63
2023-02-20T06:14:12.632Z,1027.63
2023-02-20T06:14:45.555Z,1027.33
2023-02-20T06:15:17.554Z,1027.33
2023-02-20T06:15:49.770Z,1027.53
2023-02-20T06:16:20.774Z,1027.53
2023-02-20T06:16:53.352Z,1027.53
2023-02-20T06:17:24.608Z,1027.53
2023-02-20T06:17:57.602Z,1027.53
2023-02-20T06:18:28.793Z,1027.43
2023-02-20T06:19:01.420Z,1027.43
2023-02-20T06:19:32.627Z,1027.63
2023-02-20T06:20:05.865Z,1027.63
2023-02-20T06:20:36.579Z,1027.53
2023-02-20T06:21:09.361Z,1027.53
2023-02-20T06:21:40.627Z,1027.53
2023-02-20T06:22:13.773Z,1027.53
2023-02-20T06:22:44.557Z,1027.43
2023-02-20T06:23:17.396Z,1027.43
2023-02-20T06:23:48.686Z,1027.23
2023-02-20T06:24:21.525Z,1027.23
2023-02-20T06:24:52.782Z,1027.53
2023-02-20T06:25:26.234Z,1027.53
2023-02-20T06:25:56.769Z,1027.53
2023-02-20T06:26:29.627Z,1027.33
2023-02-20T06:27:00.856Z,1027.33
2023-02-20T06:27:33.881Z,1027.73